createdAt,value
2018-06-19T00:02:22.355Z,74.60
2018-06-19T00:04:50.625Z,74.60
2018-06-19T00:07:18.881Z,74.80
2018-06-19T00:09:47.176Z,74.70
2018-06-19T00:12:15.432Z,74.70
2018-06-19T00:14:43.704Z,74.80
2018-06-19T00:17:12.040Z,74.80
2018-06-19T00:19:44.716Z,74.80
2018-06-19T00:22:13.005Z,74.80
2018-06-19T00:24:41.240Z,74.90
2018-06-19T00:27:09.511Z,74.90
2018-06-19T00:29:37.933Z,74.70
2018-06-19T00:32:06.260Z,74.50
2018-06-19T00:34:34.588Z,74.50
2018-06-19T00:37:02.852Z,74.40
2018-06-19T00:41:59.106Z,74.20
2018-06-19T00:44:27.386Z,74.20
2018-06-19T00:46:56.067Z,74.30
2018-06-19T00:49:24.333Z,74.20
2018-06-19T00:51:52.597Z,74.10
2018-06-19T00:54:20.845Z,74.20
2018-06-19T00:56:53.428Z,74.30
2018-06-19T00:59:21.782Z,74.20
2018-06-19T01:01:50.328Z,74.10
2018-06-19T01:04:18.606Z,74.10
2018-06-19T01:06:46.960Z,73.90
2018-06-19T01:09:16.098Z,73.90
2018-06-19T01:11:44.372Z,73.90
2018-06-19T01:14:12.653Z,73.80
2018-06-19T01:16:40.915Z,73.80
2018-06-19T01:19:09.164Z,73.80
2018-06-19T01:21:37.663Z,73.70
2018-06-19T01:24:05.953Z,73.70
2018-06-19T01:26:34.193Z,73.60
2018-06-19T01:29:02.615Z,73.60
2018-06-19T01:31:30.863Z,73.60
2018-06-19T01:33:59.127Z,73.60
2018-06-19T01:36:27.388Z,73.60
2018-06-19T01:38:55.840Z,73.80
2018-06-19T01:41:24.152Z,74.00
2018-06-19T01:43:52.429Z,74.00
2018-06-19T01:46:20.676Z,74.00
2018-06-19T01:48:48.960Z,74.00
2018-06-19T01:51:17.221Z,74.00
2018-06-19T01:53:45.479Z,74.10
2018-06-19T01:56:13.741Z,74.10
2018-06-19T01:58:41.997Z,74.20
2018-06-19T02:01:10.265Z,74.30
2018-06-19T02:03:38.496Z,74.20
2018-06-19T02:06:06.769Z,74.30
2018-06-19T02:08:35.005Z,74.30
2018-06-19T02:11:03.257Z,74.30
2018-06-19T02:13:31.512Z,74.30
2018-06-19T02:15:59.772Z,74.50
2018-06-19T02:18:28.038Z,74.60
2018-06-19T02:20:56.755Z,74.60
2018-06-19T02:23:25.000Z,74.60
2018-06-19T02:25:53.324Z,74.70
2018-06-19T02:28:21.608Z,74.60
2018-06-19T02:30:49.909Z,74.70
2018-06-19T02:33:18.204Z,74.80
2018-06-19T02:35:46.473Z,74.90
2018-06-19T02:38:14.800Z,74.90
2018-06-19T02:40:43.184Z,75.00
2018-06-19T02:43:11.467Z,75.00
2018-06-19T02:45:39.848Z,75.10
2018-06-19T02:50:36.306Z,75.30
2018-06-19T02:53:04.838Z,75.20
2018-06-19T02:55:33.117Z,75.50
2018-06-19T02:58:01.564Z,75.30
2018-06-19T03:00:30.056Z,75.60
2018-06-19T03:02:58.279Z,75.60
2018-06-19T03:05:26.539Z,75.50
2018-06-19T03:07:54.824Z,75.60
2018-06-19T03:10:23.105Z,75.60
2018-06-19T03:12:51.377Z,75.70
2018-06-19T03:15:19.641Z,75.80
2018-06-19T03:17:47.931Z,75.90
2018-06-19T03:20:16.278Z,76.00
2018-06-19T03:22:46.613Z,76.20
2018-06-19T03:25:14.827Z,76.30
2018-06-19T03:27:43.149Z,76.40
2018-06-19T03:30:11.542Z,76.50
2018-06-19T03:32:39.740Z,76.50
2018-06-19T03:35:08.004Z,76.80
2018-06-19T03:37:36.277Z,76.90
2018-06-19T03:40:04.556Z,76.80
2018-06-19T03:42:32.832Z,76.80
2018-06-19T03:45:01.097Z,76.90
2018-06-19T03:47:29.359Z,77.00
2018-06-19T03:49:57.848Z,77.00
2018-06-19T03:52:26.116Z,77.10
2018-06-19T03:54:54.402Z,77.30
2018-06-19T03:57:22.685Z,77.60
2018-06-19T03:59:50.931Z,77.70
2018-06-19T04:02:19.227Z,77.80
2018-06-19T04:04:47.536Z,78.00
2018-06-19T04:07:15.788Z,78.10
2018-06-19T04:09:44.053Z,78.10
2018-06-19T04:12:12.518Z,78.20
2018-06-19T04:14:40.796Z,78.20
2018-06-19T04:17:13.336Z,78.40
2018-06-19T04:19:41.662Z,78.50
2018-06-19T04:22:09.919Z,78.40
2018-06-19T04:24:38.248Z,78.30
2018-06-19T04:27:06.487Z,78.30
2018-06-19T04:29:34.813Z,78.40
2018-06-19T04:32:03.045Z,78.40
2018-06-19T04:34:31.314Z,78.40
2018-06-19T04:36:59.563Z,78.50
2018-06-19T04:39:27.910Z,78.60
2018-06-19T04:41:56.249Z,78.60
2018-06-19T04:44:24.436Z,78.40
2018-06-19T04:46:52.688Z,78.50
2018-06-19T04:49:20.953Z,78.40
2018-06-19T04:51:49.518Z,78.50
2018-06-19T04:54:17.769Z,78.60
2018-06-19T04:56:46.060Z,78.40
2018-06-19T04:59:14.293Z,78.40
2018-06-19T05:01:42.548Z,78.50
2018-06-19T05:04:10.799Z,78.50
2018-06-19T05:06:39.085Z,78.50
2018-06-19T05:09:10.009Z,78.70
2018-06-19T05:11:38.232Z,78.70
2018-06-19T05:14:06.804Z,78.80
2018-06-19T05:16:35.057Z,78.90
2018-06-19T05:19:03.366Z,78.80
2018-06-19T05:21:31.640Z,79.00
2018-06-19T05:23:59.972Z,79.00
2018-06-19T05:26:28.245Z,79.20
2018-06-19T05:28:56.872Z,79.20
2018-06-19T05:31:25.183Z,79.30
2018-06-19T05:33:53.463Z,79.40
2018-06-19T05:36:21.772Z,79.40
2018-06-19T05:38:50.235Z,79.60
2018-06-19T05:41:18.554Z,79.50
2018-06-19T05:43:46.862Z,79.60
2018-06-19T05:46:15.196Z,79.60
2018-06-19T05:48:43.452Z,79.90
2018-06-19T05:51:11.700Z,80.00
2018-06-19T05:53:39.932Z,80.20
2018-06-19T05:56:09.455Z,81.10
2018-06-19T05:58:38.382Z,80.20
2018-06-19T06:01:06.955Z,80.20
2018-06-19T06:03:35.500Z,80.20
2018-06-19T06:08:32.726Z,80.20
2018-06-19T06:11:01.734Z,80.50
2018-06-19T06:13:30.487Z,80.70
2018-06-19T06:15:58.731Z,80.70
2018-06-19T06:18:27.908Z,80.70
2018-06-19T06:20:56.364Z,80.50
2018-06-19T06:23:24.656Z,80.60
2018-06-19T06:25:53.163Z,80.70
2018-06-19T06:28:21.535Z,80.90
2018-06-19T06:30:50.167Z,81.10
2018-06-19T06:33:18.517Z,81.00
2018-06-19T06:35:46.991Z,80.90
2018-06-19T06:38:16.023Z,80.70
2018-06-19T06:40:45.518Z,80.80
2018-06-19T06:43:13.930Z,80.90
2018-06-19T06:45:42.306Z,81.10
2018-06-19T06:48:10.955Z,81.30
2018-06-19T06:50:40.168Z,81.10
2018-06-19T06:53:09.690Z,81.40
2018-06-19T06:55:40.490Z,81.40
2018-06-19T06:58:09.533Z,81.50
2018-06-19T07:00:38.810Z,81.50
2018-06-19T07:03:14.440Z,81.70
2018-06-19T07:05:43.483Z,81.50
2018-06-19T07:08:11.732Z,81.20
2018-06-19T07:10:40.664Z,81.30
2018-06-19T07:13:09.271Z,81.50
2018-06-19T07:15:37.982Z,81.50
2018-06-19T07:18:07.156Z,82.40
2018-06-19T07:20:35.996Z,81.90
2018-06-19T07:23:04.844Z,82.10
2018-06-19T07:25:33.413Z,82.20
2018-06-19T07:28:02.323Z,82.20
2018-06-19T07:30:30.907Z,82.30
2018-06-19T07:32:59.155Z,83.10
2018-06-19T07:35:28.314Z,82.40
2018-06-19T07:37:56.605Z,82.60
2018-06-19T07:40:24.788Z,82.70
2018-06-19T07:42:53.056Z,82.80
2018-06-19T07:45:21.396Z,83.00
2018-06-19T07:47:49.683Z,83.20
2018-06-19T07:50:17.940Z,83.10
2018-06-19T07:52:46.211Z,83.50
2018-06-19T07:55:14.468Z,83.90
2018-06-19T07:57:49.308Z,84.10
2018-06-19T08:00:17.659Z,84.20
2018-06-19T08:02:45.928Z,84.40
2018-06-19T08:05:14.257Z,84.70
2018-06-19T08:07:42.534Z,84.80
2018-06-19T08:10:10.807Z,84.50
2018-06-19T08:12:39.049Z,84.50
2018-06-19T08:15:07.336Z,84.50
2018-06-19T08:17:35.583Z,83.90
2018-06-19T08:20:03.871Z,83.80
2018-06-19T08:22:32.165Z,83.40
2018-06-19T08:25:00.420Z,82.70
2018-06-19T08:27:28.659Z,82.50
2018-06-19T08:29:57.000Z,82.00
2018-06-19T08:32:25.268Z,81.40
2018-06-19T08:34:53.528Z,81.30
2018-06-19T08:37:21.770Z,81.40
2018-06-19T08:39:50.032Z,81.60
2018-06-19T08:42:18.309Z,81.80
2018-06-19T08:44:46.550Z,81.60
2018-06-19T08:49:42.827Z,80.80
2018-06-19T08:52:11.279Z,81.00
2018-06-19T08:54:39.517Z,80.90
2018-06-19T08:57:07.768Z,80.90
2018-06-19T08:59:36.099Z,80.90
2018-06-19T09:02:04.399Z,80.80
2018-06-19T09:04:32.693Z,80.30
2018-06-19T09:07:00.988Z,80.20
2018-06-19T09:09:29.269Z,79.90
2018-06-19T09:11:57.483Z,79.90
2018-06-19T09:14:25.809Z,80.10
2018-06-19T09:16:54.057Z,80.10
2018-06-19T09:19:22.329Z,79.80
2018-06-19T09:21:50.584Z,79.80
2018-06-19T09:24:18.950Z,80.00
2018-06-19T09:26:47.145Z,79.90
2018-06-19T09:29:15.451Z,79.70
2018-06-19T09:31:43.860Z,79.50
2018-06-19T09:34:12.172Z,79.60
2018-06-19T09:36:47.231Z,79.40
2018-06-19T09:39:15.503Z,79.60
2018-06-19T09:41:44.784Z,79.40
2018-06-19T09:44:13.115Z,79.20
2018-06-19T09:46:41.673Z,78.30
2018-06-19T09:49:09.996Z,77.70
2018-06-19T09:51:39.018Z,77.10
2018-06-19T09:54:07.273Z,75.70
2018-06-19T09:56:35.544Z,75.20
2018-06-19T09:59:04.204Z,75.50
2018-06-19T10:01:32.503Z,75.80
2018-06-19T10:04:00.768Z,75.10
2018-06-19T10:06:29.285Z,74.20
2018-06-19T10:08:57.491Z,74.00
2018-06-19T10:11:25.804Z,74.30
2018-06-19T10:13:54.085Z,73.70
2018-06-19T10:16:22.355Z,73.60
2018-06-19T10:18:50.636Z,73.40
2018-06-19T10:21:18.936Z,73.20
2018-06-19T10:23:47.239Z,73.10
2018-06-19T10:26:16.059Z,72.20
2018-06-19T10:28:44.369Z,70.70
2018-06-19T10:31:12.679Z,70.60
2018-06-19T10:33:40.933Z,69.90
2018-06-19T10:36:09.204Z,69.30
2018-06-19T10:38:37.476Z,68.40
2018-06-19T10:41:05.725Z,67.60
2018-06-19T10:43:33.996Z,65.60
2018-06-19T10:46:02.230Z,65.40
2018-06-19T10:48:30.479Z,65.90
2018-06-19T10:50:58.783Z,66.20
2018-06-19T10:53:27.048Z,66.70
2018-06-19T10:55:55.314Z,67.30
2018-06-19T10:58:23.563Z,67.90
2018-06-19T11:00:51.815Z,68.80
2018-06-19T11:03:20.096Z,69.20
2018-06-19T11:05:48.371Z,69.30
2018-06-19T11:08:16.657Z,69.80
2018-06-19T11:13:12.958Z,69.30
2018-06-19T11:15:41.256Z,69.40
2018-06-19T11:18:09.501Z,69.10
2018-06-19T11:20:37.955Z,68.80
2018-06-19T11:23:06.228Z,69.80
2018-06-19T11:25:34.506Z,69.30
2018-06-19T11:28:02.799Z,69.10
2018-06-19T11:30:31.064Z,68.90
2018-06-19T11:32:59.352Z,68.60
2018-06-19T11:35:27.604Z,68.50
2018-06-19T11:37:55.875Z,68.30
2018-06-19T11:40:24.150Z,68.30
2018-06-19T11:42:52.387Z,68.30
2018-06-19T11:45:20.658Z,67.80
2018-06-19T11:47:48.902Z,67.50
2018-06-19T11:52:45.255Z,67.00
2018-06-19T11:55:13.524Z,66.90
2018-06-19T12:00:09.856Z,67.30
2018-06-19T12:02:38.100Z,67.60
2018-06-19T12:05:06.396Z,67.60
2018-06-19T12:07:39.964Z,66.30
2018-06-19T12:10:08.525Z,66.30
2018-06-19T12:12:36.880Z,66.40
2018-06-19T12:15:05.270Z,66.50
2018-06-19T12:17:33.504Z,66.20
2018-06-19T12:20:01.920Z,65.50
2018-06-19T12:22:30.223Z,65.50
2018-06-19T12:24:58.761Z,64.60
2018-06-19T12:27:27.056Z,64.00
2018-06-19T12:29:55.322Z,63.70
2018-06-19T12:32:23.869Z,63.60
2018-06-19T12:34:52.108Z,63.10
2018-06-19T12:39:48.409Z,63.40
2018-06-19T12:42:16.653Z,62.20
2018-06-19T12:44:44.944Z,62.60
2018-06-19T12:47:13.244Z,63.60
2018-06-19T12:52:26.299Z,63.80
2018-06-19T12:55:20.521Z,63.80
2018-06-19T12:57:48.937Z,62.90
2018-06-19T13:00:17.212Z,62.70
2018-06-19T13:02:56.879Z,61.40
2018-06-19T13:05:36.512Z,60.20
2018-06-19T13:08:04.917Z,59.80
2018-06-19T13:10:33.183Z,59.70
2018-06-19T13:13:22.880Z,59.10
2018-06-19T13:15:52.106Z,59.00
2018-06-19T13:18:32.899Z,59.20
2018-06-19T13:21:01.381Z,59.30
2018-06-19T13:23:29.862Z,59.40
2018-06-19T13:25:58.145Z,59.60
2018-06-19T13:28:38.259Z,60.20
2018-06-19T13:31:17.983Z,60.40
2018-06-19T13:33:46.250Z,60.90
2018-06-19T13:36:14.642Z,61.30
2018-06-19T13:38:42.912Z,62.30
2018-06-19T13:41:23.864Z,63.10
2018-06-19T13:44:06.058Z,63.80
2018-06-19T13:46:34.362Z,64.70
2018-06-19T13:49:02.752Z,65.20
2018-06-19T13:51:31.044Z,65.20
2018-06-19T13:53:59.330Z,65.00
2018-06-19T13:57:43.492Z,64.90
2018-06-19T14:02:42.130Z,63.10
2018-06-19T14:05:10.997Z,60.70
2018-06-19T14:07:48.508Z,59.30
2018-06-19T14:10:28.790Z,58.90
2018-06-19T14:12:58.412Z,58.20
2018-06-19T14:15:27.868Z,58.80
2018-06-19T14:17:56.292Z,59.00
2018-06-19T14:20:24.579Z,59.90
2018-06-19T14:22:52.822Z,61.20
2018-06-19T14:25:21.404Z,62.00
2018-06-19T14:27:49.669Z,62.90
2018-06-19T14:30:18.048Z,63.70
2018-06-19T14:32:46.823Z,64.50
2018-06-19T14:37:43.584Z,67.10
2018-06-19T14:40:11.973Z,68.20
2018-06-19T14:42:40.257Z,69.10
2018-06-19T14:45:09.360Z,70.10
2018-06-19T14:47:37.620Z,71.00
2018-06-19T14:50:05.916Z,71.50
2018-06-19T14:52:34.187Z,72.10
2018-06-19T14:55:02.516Z,72.60
2018-06-19T14:57:30.787Z,72.90
2018-06-19T14:59:59.244Z,73.10
2018-06-19T15:02:27.473Z,72.60
2018-06-19T15:04:55.712Z,69.30
2018-06-19T15:07:24.028Z,64.70
2018-06-19T15:09:52.904Z,61.70
2018-06-19T15:12:21.269Z,58.90
2018-06-19T15:14:49.530Z,57.90
2018-06-19T15:17:17.825Z,57.10
2018-06-19T15:19:46.088Z,56.60
2018-06-19T15:22:14.347Z,56.50
2018-06-19T15:24:42.620Z,56.90
2018-06-19T15:27:10.876Z,56.90
2018-06-19T15:29:39.231Z,56.70
2018-06-19T15:32:07.495Z,57.10
2018-06-19T15:34:35.780Z,57.60
2018-06-19T15:37:04.029Z,58.10
2018-06-19T15:39:32.288Z,58.80
2018-06-19T15:42:00.531Z,59.30
2018-06-19T15:44:28.847Z,60.00
2018-06-19T15:46:57.163Z,60.70
2018-06-19T15:49:25.442Z,61.50
2018-06-19T15:51:53.815Z,61.60
2018-06-19T15:54:22.160Z,62.10
2018-06-19T15:56:50.492Z,62.80
2018-06-19T15:59:18.964Z,63.10
2018-06-19T16:01:47.266Z,63.30
2018-06-19T16:04:17.649Z,63.70
2018-06-19T16:06:46.207Z,63.80
2018-06-19T16:09:14.499Z,63.60
2018-06-19T16:11:42.772Z,63.00
2018-06-19T16:14:11.058Z,62.60
2018-06-19T16:16:39.360Z,62.10
2018-06-19T16:19:07.620Z,61.80
2018-06-19T16:21:35.880Z,62.00
2018-06-19T16:24:04.136Z,62.30
2018-06-19T16:26:32.376Z,62.00
2018-06-19T16:29:01.732Z,62.30
2018-06-19T16:31:29.992Z,62.30
2018-06-19T16:33:58.276Z,63.30
2018-06-19T16:36:26.544Z,62.30
2018-06-19T16:38:54.799Z,62.20
2018-06-19T16:41:23.164Z,62.30
2018-06-19T16:43:51.492Z,62.60
2018-06-19T16:46:19.904Z,62.80
2018-06-19T16:48:48.188Z,63.10
2018-06-19T16:51:16.455Z,63.40
2018-06-19T16:53:44.752Z,63.50
2018-06-19T16:56:13.624Z,63.50
2018-06-19T16:58:41.883Z,63.50
2018-06-19T17:01:10.175Z,63.40
2018-06-19T17:03:38.489Z,63.70
2018-06-19T17:06:06.768Z,63.90
2018-06-19T17:08:35.007Z,64.00
2018-06-19T17:11:04.037Z,64.20
2018-06-19T17:13:32.460Z,64.30
2018-06-19T17:18:29.774Z,65.10
2018-06-19T17:20:58.626Z,65.10
2018-06-19T17:23:27.435Z,65.50
2018-06-19T17:25:56.032Z,65.80
2018-06-19T17:28:24.686Z,66.20
2018-06-19T17:30:53.168Z,66.30
2018-06-19T17:33:21.427Z,66.50
2018-06-19T17:35:50.477Z,66.80
2018-06-19T17:40:47.448Z,67.40
2018-06-19T17:43:16.175Z,67.30
2018-06-19T17:45:44.856Z,67.30
2018-06-19T17:48:13.363Z,67.40
2018-06-19T17:50:41.628Z,67.60
2018-06-19T17:53:10.829Z,68.00
2018-06-19T17:55:39.832Z,68.20
2018-06-19T17:58:08.459Z,69.10
2018-06-19T18:00:37.013Z,68.40
2018-06-19T18:03:05.828Z,68.70
2018-06-19T18:08:02.100Z,69.10
2018-06-19T18:10:30.425Z,69.20
2018-06-19T18:15:26.827Z,69.40
2018-06-19T18:17:55.083Z,69.20
2018-06-19T18:20:23.473Z,69.50
2018-06-19T18:22:51.746Z,69.60
2018-06-19T18:25:19.992Z,69.80
2018-06-19T18:27:48.256Z,70.10
2018-06-19T18:30:16.533Z,70.10
2018-06-19T18:32:44.766Z,70.20
2018-06-19T18:35:13.008Z,70.30
2018-06-19T18:37:41.252Z,70.40
2018-06-19T18:40:09.524Z,70.50
2018-06-19T18:42:37.759Z,70.60
2018-06-19T18:45:06.041Z,70.50
2018-06-19T18:47:34.371Z,70.70
2018-06-19T18:50:02.747Z,70.90
2018-06-19T18:52:31.220Z,71.00
2018-06-19T18:54:59.500Z,71.20
2018-06-19T18:57:27.779Z,71.30
2018-06-19T18:59:56.020Z,71.50
2018-06-19T19:02:24.267Z,71.50
2018-06-19T19:04:52.550Z,71.60
2018-06-19T19:07:20.792Z,71.60
2018-06-19T19:09:54.492Z,71.70
2018-06-19T19:12:22.713Z,71.80
2018-06-19T19:14:56.259Z,71.90
2018-06-19T19:17:29.941Z,72.10
2018-06-19T19:19:58.406Z,72.30
2018-06-19T19:22:26.757Z,72.30
2018-06-19T19:24:54.982Z,72.50
2018-06-19T19:27:28.703Z,72.60
2018-06-19T19:29:56.958Z,72.70
2018-06-19T19:34:53.169Z,72.90
2018-06-19T19:37:26.765Z,72.80
2018-06-19T19:39:55.007Z,72.90
2018-06-19T19:42:23.476Z,73.00
2018-06-19T19:44:51.710Z,73.20
2018-06-19T19:47:25.271Z,73.20
2018-06-19T19:49:53.734Z,73.50
2018-06-19T19:52:21.971Z,73.50
2018-06-19T19:54:50.200Z,73.60
2018-06-19T19:57:23.784Z,73.60
2018-06-19T19:59:52.074Z,73.60
2018-06-19T20:02:20.313Z,73.50
2018-06-19T20:04:48.563Z,73.60
2018-06-19T20:07:16.892Z,73.60
2018-06-19T20:09:45.184Z,73.70
2018-06-19T20:12:13.596Z,73.90
2018-06-19T20:14:41.848Z,73.90
2018-06-19T20:17:10.140Z,73.90
2018-06-19T20:19:38.531Z,73.80
2018-06-19T20:22:07.729Z,73.70
2018-06-19T20:24:35.979Z,73.90
2018-06-19T20:27:04.231Z,73.80
2018-06-19T20:29:32.498Z,73.70
2018-06-19T20:32:01.157Z,73.80
2018-06-19T20:34:29.444Z,73.80
2018-06-19T20:36:57.686Z,74.80
2018-06-19T20:42:00.799Z,74.10
2018-06-19T20:44:29.091Z,74.10
2018-06-19T20:46:57.335Z,74.00
2018-06-19T20:49:25.655Z,74.20
2018-06-19T20:51:54.143Z,74.20
2018-06-19T20:54:22.425Z,74.20
2018-06-19T20:56:50.737Z,74.10
2018-06-19T20:59:19.189Z,74.00
2018-06-19T21:01:47.450Z,74.00
2018-06-19T21:04:15.732Z,74.00
2018-06-19T21:06:43.980Z,74.00
2018-06-19T21:09:12.236Z,74.00
2018-06-19T21:11:40.512Z,74.30
2018-06-19T21:14:08.744Z,74.20
2018-06-19T21:16:37.008Z,74.10
2018-06-19T21:19:05.427Z,74.40
2018-06-19T21:21:33.648Z,75.20
2018-06-19T21:24:01.934Z,75.30
2018-06-19T21:26:30.188Z,74.60
2018-06-19T21:28:58.474Z,74.70
2018-06-19T21:31:26.749Z,74.70
2018-06-19T21:33:55.102Z,74.80
2018-06-19T21:36:23.366Z,74.90
2018-06-19T21:38:51.612Z,75.00
2018-06-19T21:41:19.916Z,75.10
2018-06-19T21:43:48.143Z,75.20
2018-06-19T21:46:16.396Z,75.20
2018-06-19T21:48:44.647Z,75.30
2018-06-19T21:51:12.894Z,75.40
2018-06-19T21:53:41.544Z,75.50
2018-06-19T21:56:09.785Z,75.60
2018-06-19T21:58:38.064Z,75.70
2018-06-19T22:01:06.445Z,75.70
2018-06-19T22:03:34.723Z,75.90
2018-06-19T22:06:03.032Z,76.00
2018-06-19T22:08:36.696Z,76.10
2018-06-19T22:11:05.184Z,76.50
2018-06-19T22:13:33.611Z,76.60
2018-06-19T22:16:01.957Z,76.60
2018-06-19T22:18:30.432Z,76.50
2018-06-19T22:20:58.689Z,76.70
2018-06-19T22:23:26.944Z,76.90
2018-06-19T22:25:55.189Z,77.10
2018-06-19T22:28:23.469Z,77.00
2018-06-19T22:30:51.723Z,77.00
2018-06-19T22:33:19.970Z,77.10
2018-06-19T22:38:16.268Z,77.20
2018-06-19T22:40:44.703Z,77.10
2018-06-19T22:43:12.963Z,77.00
2018-06-19T22:45:41.241Z,77.30
2018-06-19T22:48:09.534Z,77.30
2018-06-19T22:50:37.800Z,77.40
2018-06-19T22:53:06.374Z,77.40
2018-06-19T22:55:34.752Z,77.30
2018-06-19T22:58:03.032Z,77.40
2018-06-19T23:00:31.299Z,77.80
2018-06-19T23:03:02.804Z,77.90
2018-06-19T23:05:31.216Z,78.00
2018-06-19T23:07:59.668Z,77.80
2018-06-19T23:10:28.687Z,77.60
2018-06-19T23:12:57.012Z,77.90
2018-06-19T23:15:25.469Z,77.90
2018-06-19T23:17:54.004Z,77.90
2018-06-19T23:20:22.321Z,78.10
2018-06-19T23:22:51.413Z,78.10
2018-06-19T23:25:20.076Z,78.10
2018-06-19T23:27:48.352Z,78.20
2018-06-19T23:30:17.864Z,78.10
2018-06-19T23:32:46.125Z,78.10
2018-06-19T23:35:14.391Z,78.20
2018-06-19T23:37:43.106Z,78.30
2018-06-19T23:40:11.461Z,78.30
2018-06-19T23:42:39.743Z,78.40
2018-06-19T23:47:36.056Z,78.50
2018-06-19T23:50:04.452Z,78.50
2018-06-19T23:52:32.725Z,78.40
2018-06-19T23:55:01.011Z,78.50
2018-06-19T23:57:29.347Z,79.30
2018-06-19T23:59:57.776Z,78.60
